createdAt,value
2022-09-17T00:02:44.939Z,1.23
2022-09-17T00:07:46.745Z,1.55
2022-09-17T00:12:49.274Z,1.40
2022-09-17T00:17:58.141Z,1.40
2022-09-17T00:22:59.890Z,1.40
2022-09-17T00:28:01.919Z,1.65
2022-09-17T00:33:03.742Z,1.27
2022-09-17T00:38:05.369Z,1.40
2022-09-17T00:43:12.212Z,1.42
2022-09-17T00:48:13.893Z,1.60
2022-09-17T00:53:18.388Z,1.20
2022-09-17T00:58:22.817Z,1.55
2022-09-17T01:03:24.769Z,1.70
2022-09-17T01:08:58.493Z,1.27
2022-09-17T01:14:09.733Z,1.40
2022-09-17T01:19:45.460Z,1.50
2022-09-17T01:25:11.552Z,1.67
2022-09-17T01:30:21.845Z,1.60
2022-09-17T01:35:46.940Z,2.15
2022-09-17T01:40:56.985Z,1.60
2022-09-17T01:46:10.307Z,1.60
2022-09-17T01:51:17.066Z,1.30
2022-09-17T01:56:24.888Z,1.42
2022-09-17T02:01:31.128Z,1.60
2022-09-17T02:06:38.236Z,1.80
2022-09-17T02:11:43.385Z,1.65
2022-09-17T02:16:50.813Z,1.98
2022-09-17T02:22:15.116Z,1.80
2022-09-17T02:27:26.733Z,2.00
2022-09-17T02:32:28.564Z,1.85
2022-09-17T02:37:30.447Z,1.80
2022-09-17T02:42:35.692Z,2.22
2022-09-17T02:48:04.906Z,2.25
2022-09-17T02:53:18.578Z,2.30
2022-09-17T02:58:41.254Z,1.80
2022-09-17T03:03:45.815Z,2.45
2022-09-17T03:08:48.095Z,2.05
2022-09-17T03:13:50.239Z,1.55
2022-09-17T03:18:51.964Z,2.05
2022-09-17T03:23:53.888Z,2.30
2022-09-17T03:28:55.929Z,1.90
2022-09-17T03:33:58.803Z,2.08
2022-09-17T03:39:00.634Z,3.45
2022-09-17T03:44:02.831Z,3.10
2022-09-17T03:49:04.456Z,2.15
2022-09-17T03:54:06.650Z,2.92
2022-09-17T03:59:08.653Z,3.08
2022-09-17T04:04:10.316Z,3.10
2022-09-17T04:09:11.920Z,4.57
2022-09-17T04:14:13.720Z,3.65
2022-09-17T04:19:15.481Z,3.17
2022-09-17T04:24:17.227Z,3.20
2022-09-17T04:29:19.033Z,2.45
2022-09-17T04:34:20.805Z,2.65
2022-09-17T04:39:22.361Z,2.40
2022-09-17T04:44:23.942Z,1.83
2022-09-17T04:49:29.730Z,1.80
2022-09-17T04:54:31.333Z,1.98
2022-09-17T04:59:33.184Z,2.20
2022-09-17T05:04:34.792Z,1.77
2022-09-17T05:09:36.553Z,1.55
2022-09-17T05:14:38.502Z,2.30
2022-09-17T05:19:40.065Z,2.20
2022-09-17T05:24:41.965Z,2.38
2022-09-17T05:29:43.641Z,2.67
2022-09-17T05:34:45.226Z,2.95
2022-09-17T05:39:47.520Z,2.63
2022-09-17T05:44:49.305Z,2.58
2022-09-17T05:49:50.920Z,3.85
2022-09-17T05:54:52.486Z,4.13
2022-09-17T05:59:54.236Z,3.30
2022-09-17T06:04:55.850Z,2.58
2022-09-17T06:09:57.642Z,2.88
2022-09-17T06:14:59.209Z,2.83
2022-09-17T06:20:01.598Z,3.10
2022-09-17T06:25:04.047Z,2.70
2022-09-17T06:30:06.852Z,2.33
2022-09-17T06:35:08.999Z,2.70
2022-09-17T06:40:10.995Z,1.95
2022-09-17T06:45:16.601Z,2.15
2022-09-17T06:50:19.620Z,2.17
2022-09-17T06:55:21.732Z,1.70
2022-09-17T07:00:23.370Z,2.03
2022-09-17T07:05:26.233Z,2.13
2022-09-17T07:10:28.184Z,2.40
2022-09-17T07:15:30.152Z,3.80
2022-09-17T07:20:31.755Z,3.70
2022-09-17T07:25:33.512Z,3.28
2022-09-17T07:30:35.117Z,2.40
2022-09-17T07:35:36.702Z,3.05
2022-09-17T07:40:38.343Z,3.30
2022-09-17T07:45:40.244Z,2.28
2022-09-17T07:50:41.816Z,4.30
2022-09-17T07:55:43.457Z,3.78
2022-09-17T08:00:45.165Z,3.10
2022-09-17T08:05:48.007Z,7.45
2022-09-17T08:10:49.690Z,6.00
2022-09-17T08:15:51.254Z,4.45
2022-09-17T08:20:52.946Z,3.75
2022-09-17T08:25:55.972Z,3.17
2022-09-17T08:31:08.578Z,2.20
2022-09-17T08:36:12.495Z,1.10
2022-09-17T08:41:41.304Z,1.30
2022-09-17T08:46:50.898Z,1.37
2022-09-17T08:52:20.240Z,0.82
2022-09-17T08:57:33.865Z,0.80
2022-09-17T09:02:45.829Z,0.98
2022-09-17T09:08:00.541Z,0.93
2022-09-17T09:13:02.359Z,1.10
2022-09-17T09:18:17.921Z,0.70
2022-09-17T09:23:50.691Z,0.73
2022-09-17T09:28:53.045Z,1.08
2022-09-17T09:33:55.567Z,0.80
2022-09-17T09:39:02.241Z,0.55
2022-09-17T09:44:09.591Z,0.57
2022-09-17T09:49:11.820Z,0.60
2022-09-17T09:54:29.792Z,0.70
2022-09-17T09:59:31.590Z,0.98
2022-09-17T10:04:33.289Z,0.65
2022-09-17T10:09:37.064Z,0.68
2022-09-17T10:14:40.244Z,1.00
2022-09-17T10:19:43.699Z,0.73
2022-09-17T10:24:46.158Z,0.77
2022-09-17T10:29:51.560Z,0.73
2022-09-17T10:35:04.630Z,0.70
2022-09-17T10:40:27.107Z,1.20
2022-09-17T10:45:31.558Z,0.93
2022-09-17T10:50:35.583Z,0.70
2022-09-17T10:55:50.622Z,0.88
2022-09-17T11:01:02.392Z,0.90
2022-09-17T11:06:14.298Z,0.90
2022-09-17T11:11:30.117Z,0.80
2022-09-17T11:16:55.560Z,1.10
2022-09-17T11:22:03.717Z,1.10
2022-09-17T11:27:15.343Z,0.95
2022-09-17T11:32:46.598Z,0.80
2022-09-17T11:38:16.262Z,0.80
2022-09-17T11:43:21.869Z,0.80
2022-09-17T11:48:32.961Z,0.68
2022-09-17T11:53:54.503Z,1.33
2022-09-17T11:59:02.256Z,0.85
2022-09-17T12:04:19.979Z,0.85
2022-09-17T12:09:26.554Z,0.90
2022-09-17T12:14:36.717Z,1.00
2022-09-17T12:19:46.776Z,0.90
2022-09-17T12:24:51.526Z,0.57
2022-09-17T12:30:06.853Z,0.90
2022-09-17T12:35:52.697Z,1.10
2022-09-17T12:40:57.912Z,0.77
2022-09-17T12:46:17.487Z,1.00
2022-09-17T12:51:43.456Z,0.93
2022-09-17T12:57:01.693Z,1.00
2022-09-17T13:02:27.058Z,0.88
2022-09-17T13:07:53.563Z,1.10
2022-09-17T13:13:13.841Z,1.17
2022-09-17T13:18:27.828Z,0.90
2022-09-17T13:23:34.195Z,0.85
2022-09-17T13:28:47.787Z,0.88
2022-09-17T13:33:53.787Z,1.25
2022-09-17T13:38:55.537Z,0.80
2022-09-17T13:43:57.818Z,0.90
2022-09-17T13:49:02.643Z,0.77
2022-09-17T13:54:10.009Z,0.75
2022-09-17T13:59:32.052Z,0.80
2022-09-17T14:04:40.374Z,1.02
2022-09-17T14:09:56.273Z,0.87
2022-09-17T14:14:58.140Z,1.17
2022-09-17T14:20:01.105Z,1.65
2022-09-17T14:25:02.879Z,1.20
2022-09-17T14:30:20.730Z,1.25
2022-09-17T14:35:42.348Z,0.90
2022-09-17T14:40:47.061Z,1.00
2022-09-17T14:45:51.820Z,1.05
2022-09-17T14:51:31.657Z,0.90
2022-09-17T14:57:02.356Z,0.90
2022-09-17T15:02:19.848Z,0.80
2022-09-17T15:07:23.388Z,0.98
2022-09-17T15:12:29.560Z,0.75
2022-09-17T15:17:33.424Z,0.73
2022-09-17T15:22:42.374Z,1.00
2022-09-17T15:27:46.005Z,0.80
2022-09-17T15:32:57.479Z,1.00
2022-09-17T15:38:22.218Z,0.80
2022-09-17T15:43:33.704Z,0.90
2022-09-17T15:48:38.443Z,1.27
2022-09-17T15:53:52.435Z,0.85
2022-09-17T15:59:25.612Z,0.80
2022-09-17T16:04:28.798Z,0.40
2022-09-17T16:09:53.289Z,0.68
2022-09-17T16:14:57.283Z,0.65
2022-09-17T16:20:05.405Z,0.57
2022-09-17T16:25:08.869Z,0.57
2022-09-17T16:30:15.741Z,0.40
2022-09-17T16:35:20.261Z,0.50
2022-09-17T16:40:25.331Z,0.50
2022-09-17T16:45:29.113Z,0.20
2022-09-17T16:50:31.453Z,0.47
2022-09-17T16:55:33.234Z,0.50
2022-09-17T17:00:36.061Z,0.40
2022-09-17T17:05:38.153Z,0.50
2022-09-17T17:10:40.101Z,0.40
2022-09-17T17:15:42.011Z,0.40
2022-09-17T17:20:43.817Z,0.40
2022-09-17T17:25:45.435Z,0.40
2022-09-17T17:30:48.579Z,0.30
2022-09-17T17:35:50.365Z,0.30
2022-09-17T17:41:07.302Z,0.40
2022-09-17T17:46:10.413Z,0.50
2022-09-17T17:51:12.457Z,0.40
2022-09-17T17:56:14.252Z,0.55
2022-09-17T18:01:19.546Z,0.57
2022-09-17T18:06:21.183Z,1.50
2022-09-17T18:11:23.499Z,0.98
2022-09-17T18:16:25.076Z,0.50
2022-09-17T18:21:27.585Z,0.60
2022-09-17T18:26:29.817Z,1.00
2022-09-17T18:31:33.501Z,0.80
2022-09-17T18:36:36.638Z,0.70
2022-09-17T18:41:40.292Z,0.85
2022-09-17T18:46:42.645Z,0.80
2022-09-17T18:51:44.590Z,0.63
2022-09-17T18:56:46.489Z,0.50
2022-09-17T19:01:48.370Z,0.90
2022-09-17T19:06:50.150Z,0.60
2022-09-17T19:11:51.977Z,0.50
2022-09-17T19:16:55.218Z,0.68
2022-09-17T19:21:56.859Z,0.90
2022-09-17T19:26:58.886Z,0.85
2022-09-17T19:32:00.910Z,0.90
2022-09-17T19:37:02.864Z,0.77
2022-09-17T19:42:04.841Z,0.90
2022-09-17T19:47:06.625Z,0.70
2022-09-17T19:52:08.693Z,1.00
2022-09-17T19:57:10.577Z,0.88
2022-09-17T20:02:15.664Z,1.20
2022-09-17T20:07:17.310Z,1.17
2022-09-17T20:12:18.901Z,1.02
2022-09-17T20:17:20.529Z,0.80
2022-09-17T20:22:22.370Z,1.30
2022-09-17T20:27:24.012Z,1.38
2022-09-17T20:32:25.575Z,1.35
2022-09-17T20:38:01.708Z,2.17
2022-09-17T20:42:50.462Z,1.23
2022-09-17T20:47:52.081Z,1.13
2022-09-17T20:52:53.671Z,1.25
2022-09-17T20:57:55.244Z,1.08
2022-09-17T21:02:57.626Z,0.90
2022-09-17T21:07:59.402Z,1.02
2022-09-17T21:13:01.036Z,0.93
2022-09-17T21:18:02.726Z,1.00
2022-09-17T21:23:04.611Z,0.90
2022-09-17T21:28:06.182Z,1.00
2022-09-17T21:33:08.094Z,0.90
2022-09-17T21:38:09.725Z,0.90
2022-09-17T21:43:11.554Z,0.90
2022-09-17T21:48:13.314Z,0.95
2022-09-17T21:53:14.936Z,0.95
2022-09-17T21:58:16.666Z,0.80
2022-09-17T22:03:19.812Z,0.70
2022-09-17T22:08:21.644Z,0.50
2022-09-17T22:13:23.466Z,0.95
2022-09-17T22:18:25.759Z,0.70
2022-09-17T22:23:27.627Z,0.60
2022-09-17T22:28:29.857Z,0.82
2022-09-17T22:33:33.544Z,0.70
2022-09-17T22:38:35.986Z,1.17
2022-09-17T22:43:37.613Z,0.77
2022-09-17T22:48:40.624Z,0.75
2022-09-17T22:53:43.273Z,0.80
2022-09-17T22:58:45.614Z,0.70
2022-09-17T23:03:48.886Z,0.60
2022-09-17T23:08:51.453Z,0.70
2022-09-17T23:13:54.989Z,0.82
2022-09-17T23:18:56.880Z,0.70
2022-09-17T23:23:58.554Z,0.60
2022-09-17T23:29:04.943Z,0.75
2022-09-17T23:34:07.631Z,0.60
2022-09-17T23:39:11.416Z,0.60
2022-09-17T23:44:15.690Z,0.57
2022-09-17T23:49:18.232Z,0.55
2022-09-17T23:54:19.893Z,0.40
2022-09-17T23:59:21.498Z,0.50
